createdAt,value
2019-01-09T00:01:19.508Z,300.7
2019-01-09T00:06:28.208Z,300.7
2019-01-09T00:11:36.977Z,301
2019-01-09T00:16:45.774Z,301
2019-01-09T00:21:54.671Z,301
2019-01-09T00:27:03.476Z,300.8
2019-01-09T00:32:12.171Z,301
2019-01-09T00:37:20.969Z,300.8
2019-01-09T00:42:29.857Z,301.1
2019-01-09T00:47:38.663Z,300.9
2019-01-09T00:52:47.510Z,300.8
2019-01-09T00:57:56.270Z,301
2019-01-09T01:03:05.145Z,301.2
2019-01-09T01:08:13.895Z,301
2019-01-09T01:13:23.300Z,300.9
2019-01-09T01:23:40.440Z,301.1
2019-01-09T01:28:49.316Z,300.8
2019-01-09T01:33:57.985Z,301
2019-01-09T01:44:15.705Z,301.1
2019-01-09T01:49:24.521Z,301.1
2019-01-09T01:54:33.233Z,301.5
2019-01-09T01:59:42.111Z,301.2
2019-01-09T02:04:50.874Z,301.1
2019-01-09T02:09:59.696Z,301.3
2019-01-09T02:15:08.618Z,301.1
2019-01-09T02:20:17.489Z,300.9
2019-01-09T02:25:26.329Z,300.8
2019-01-09T02:35:47.361Z,301
2019-01-09T02:40:52.876Z,300.9
2019-01-09T02:46:01.539Z,301.2
2019-01-09T02:51:10.400Z,301.1
2019-01-09T02:56:19.205Z,301.1
2019-01-09T03:06:36.787Z,301.3
2019-01-09T03:11:45.588Z,301.3
2019-01-09T03:16:54.406Z,301
2019-01-09T03:22:03.278Z,301.1
2019-01-09T03:27:12.080Z,301.3
2019-01-09T03:32:20.968Z,301.1
2019-01-09T03:37:29.779Z,301.1
2019-01-09T03:42:38.635Z,301
2019-01-09T03:52:58.542Z,301
2019-01-09T03:58:05.363Z,301.1
2019-01-09T04:03:14.117Z,301.3
2019-01-09T04:08:23.055Z,301.2
2019-01-09T04:13:31.876Z,301.2
2019-01-09T04:18:41.132Z,301.4
2019-01-09T04:23:49.623Z,300.9
2019-01-09T04:28:58.466Z,301
2019-01-09T04:34:07.261Z,300.8
2019-01-09T04:39:16.154Z,300.9
2019-01-09T04:49:33.730Z,300.8
2019-01-09T04:54:42.536Z,300.8
2019-01-09T04:59:51.332Z,301.2
2019-01-09T05:15:17.854Z,301.1
2019-01-09T05:20:26.593Z,301
2019-01-09T05:25:35.474Z,301
2019-01-09T05:35:53.041Z,300.8
2019-01-09T05:41:01.879Z,301.4
2019-01-09T05:46:10.627Z,301.3
2019-01-09T05:51:19.369Z,301.4
2019-01-09T05:56:28.124Z,301.5
2019-01-09T06:01:36.968Z,301.5
2019-01-09T06:06:45.734Z,301.2
2019-01-09T06:11:54.527Z,301.7
2019-01-09T06:17:03.288Z,301.9
2019-01-09T06:22:11.951Z,301.9
2019-01-09T06:37:38.299Z,302
2019-01-09T06:42:47.088Z,301.6
2019-01-09T06:47:55.847Z,301.5
2019-01-09T06:53:04.545Z,301.6
2019-01-09T06:58:13.324Z,301.7
2019-01-09T07:03:22.031Z,302.1
2019-01-09T07:08:30.829Z,302.2
2019-01-09T07:13:39.535Z,301.4
2019-01-09T07:18:48.097Z,301.6
2019-01-09T07:23:56.846Z,301.7
2019-01-09T07:29:05.719Z,301.6
2019-01-09T07:39:23.114Z,301.6
2019-01-09T07:44:31.867Z,301.4
2019-01-09T07:54:49.528Z,301.5
2019-01-09T08:20:35.986Z,301.1
2019-01-09T08:25:41.877Z,301.3
2019-01-09T08:30:50.476Z,301.2
2019-01-09T08:35:59.275Z,301.4
2019-01-09T08:41:07.893Z,300.9
2019-01-09T08:46:16.527Z,301.1
2019-01-09T08:51:25.120Z,301
2019-01-09T08:56:33.808Z,301.1
2019-01-09T09:06:51.077Z,300.7
2019-01-09T09:11:59.673Z,300.9
2019-01-09T09:22:16.910Z,301
2019-01-09T09:27:25.558Z,300.9
2019-01-09T09:32:33.888Z,300.9
2019-01-09T09:42:50.913Z,300.8
2019-01-09T09:47:59.351Z,300.8
2019-01-09T10:03:24.656Z,300.8
2019-01-09T10:08:33.050Z,300.7
2019-01-09T10:23:57.716Z,300.9
2019-01-09T10:29:06.021Z,300.6
2019-01-09T10:34:14.027Z,301.1
2019-01-09T10:44:30.312Z,301
2019-01-09T10:49:38.481Z,300.6
2019-01-09T10:54:46.511Z,300.8
2019-01-09T11:05:03.077Z,301
2019-01-09T11:10:10.958Z,300.8
2019-01-09T11:20:27.397Z,300.7
2019-01-09T11:25:35.463Z,300.5
2019-01-09T11:30:43.633Z,300.6
2019-01-09T11:46:08.257Z,300.7
2019-01-09T11:51:16.381Z,300.9
2019-01-09T11:56:24.639Z,300.7
2019-01-09T12:01:32.771Z,300.6
2019-01-09T12:06:41.047Z,300.5
2019-01-09T12:11:49.312Z,300.6
2019-01-09T12:16:57.722Z,300.8
2019-01-09T12:22:05.908Z,300.9
2019-01-09T12:27:14.284Z,300.8
2019-01-09T12:37:30.815Z,300.8
2019-01-09T12:42:39.193Z,300.6
2019-01-09T12:47:47.499Z,300.5
2019-01-09T12:52:55.769Z,300.8
2019-01-09T13:03:12.549Z,300.6
2019-01-09T13:08:20.774Z,300.5
2019-01-09T13:23:45.661Z,300.6
2019-01-09T13:34:02.076Z,300.6
2019-01-09T13:39:10.500Z,300.7
2019-01-09T13:59:43.638Z,300.5
2019-01-09T14:04:51.901Z,300.6
2019-01-09T14:10:00.270Z,301
2019-01-09T14:15:08.508Z,300.5
2019-01-09T14:20:16.808Z,300.6
2019-01-09T14:25:25.367Z,300.6
2019-01-09T14:30:33.641Z,300.8
2019-01-09T14:45:58.840Z,300.7
2019-01-09T14:51:07.106Z,300.7
2019-01-09T15:06:32.413Z,301
2019-01-09T15:11:40.922Z,300.6
2019-01-09T15:16:49.390Z,300.9
2019-01-09T15:21:57.815Z,300.7
2019-01-09T15:27:06.388Z,300.9
2019-01-09T15:32:14.821Z,300.3
2019-01-09T15:37:23.316Z,300.8
2019-01-09T15:42:31.947Z,300.8
2019-01-09T15:47:40.491Z,301.2
2019-01-09T15:57:57.513Z,300.7
2019-01-09T16:18:31.797Z,300.7
2019-01-09T16:33:57.729Z,301
2019-01-09T16:39:06.286Z,300.6
2019-01-09T16:49:23.657Z,300.7
2019-01-09T16:59:40.891Z,300.8
2019-01-09T17:04:49.585Z,300.7
2019-01-09T17:09:58.215Z,300.9
2019-01-09T17:15:06.976Z,300.8
2019-01-09T17:20:15.711Z,300.6
2019-01-09T17:25:24.453Z,300.8
2019-01-09T17:35:41.752Z,301.2
2019-01-09T17:40:50.462Z,300.6
2019-01-09T17:56:16.609Z,300.7
2019-01-09T18:01:25.270Z,300.5
2019-01-09T18:11:42.762Z,300.8
2019-01-09T18:16:51.399Z,300.6
2019-01-09T18:22:00.138Z,300.5
2019-01-09T18:32:17.701Z,300.5
2019-01-09T18:37:26.376Z,300.6
2019-01-09T18:42:35.083Z,300.8
2019-01-09T18:47:43.769Z,300.5
2019-01-09T18:52:52.589Z,300.5
2019-01-09T18:58:01.379Z,300.8
2019-01-09T19:08:18.690Z,300.8
2019-01-09T19:18:36.108Z,300.6
2019-01-09T19:23:45.223Z,301
2019-01-09T19:34:02.463Z,300.8
2019-01-09T19:39:11.058Z,300.5
2019-01-09T19:44:19.774Z,300.5
2019-01-09T19:54:37.312Z,300.8
2019-01-09T19:59:45.895Z,300.6
2019-01-09T20:04:54.655Z,300.6
2019-01-09T20:20:20.949Z,300.5
2019-01-09T20:30:38.546Z,300.5
2019-01-09T20:51:13.561Z,300.5
2019-01-09T20:56:22.340Z,300.9
2019-01-09T21:06:39.985Z,300.9
2019-01-09T21:11:48.837Z,300.6
2019-01-09T21:16:57.740Z,300.7
2019-01-09T21:22:06.362Z,300.6
2019-01-09T21:32:24.089Z,300.9
2019-01-09T21:37:33.005Z,300.6
2019-01-09T21:42:41.687Z,300.8
2019-01-09T21:47:50.569Z,300.7
2019-01-09T22:08:26.061Z,300.8
2019-01-09T22:13:34.857Z,300.6
2019-01-09T22:18:43.758Z,300.6
2019-01-09T22:34:10.457Z,300.8
2019-01-09T22:44:28.262Z,300.5
2019-01-09T22:54:46.053Z,300.5
2019-01-09T23:05:03.912Z,301
2019-01-09T23:10:12.799Z,300.7
2019-01-09T23:15:21.720Z,300.5
2019-01-09T23:25:39.679Z,300.6
2019-01-09T23:51:24.286Z,300.6
2019-01-09T23:56:33.294Z,300.3
